Time;durP1;ratioP1;P1;durP2;ratioP2;P2;SDS_P1;SDS_P2;PMS_P1;PMS_P2;Temp;Humidity;BMP_temperature;BMP_pressure;BME280_temperature;BME280_humidity;BME280_pressure;Samples;Min_cycle;Max_cycle;Signal;HPM_P1;HPM_P2
2022/09/10 04:02:53;;;;;;;1999.90;999.90;;;;;;;;;;5062047;23;20573;-68
2022/09/10 04:05:39;;;;;;;1999.90;999.90;;;;;;;;;;5018690;28;20228;-69
2022/09/10 04:08:23;;;;;;;1999.90;999.90;;;;;;;;;;5019585;28;20222;-68
2022/09/10 04:11:09;;;;;;;1999.90;999.90;;;;;;;;;;5023819;28;20934;-68
2022/09/10 04:13:54;;;;;;;1999.90;999.90;;;;;;;;;;5013935;28;20275;-68
2022/09/10 04:16:40;;;;;;;1999.90;999.90;;;;;;;;;;5014771;28;20213;-69
2022/09/10 04:19:26;;;;;;;1999.90;999.90;;;;;;;;;;5019741;28;20209;-68
2022/09/10 04:22:11;;;;;;;1999.90;999.90;;;;;;;;;;5032636;28;20238;-68
2022/09/10 04:24:56;;;;;;;1999.90;999.90;;;;;;;;;;5024934;28;20731;-68
2022/09/10 04:27:41;;;;;;;1999.90;999.90;;;;;;;;;;5033180;28;20217;-68
2022/09/10 04:30:26;;;;;;;1999.90;999.90;;;;;;;;;;5031132;28;20288;-68
2022/09/10 04:33:11;;;;;;;1999.90;999.90;;;;;;;;;;5033124;28;20245;-68
2022/09/10 04:35:59;;;;;;;1999.90;999.90;;;;;;;;;;5030855;28;20213;-68
2022/09/10 04:38:44;;;;;;;1999.90;999.90;;;;;;;;;;5033306;28;20213;-68
2022/09/10 04:41:29;;;;;;;1999.90;999.90;;;;;;;;;;5031182;28;20225;-68
2022/09/10 04:44:14;;;;;;;1999.90;999.90;;;;;;;;;;5031034;28;20233;-68
2022/09/10 04:46:59;;;;;;;1999.90;999.90;;;;;;;;;;5026391;28;20430;-68
2022/09/10 04:49:43;;;;;;;1999.90;999.90;;;;;;;;;;5029622;28;20205;-67
2022/09/10 04:52:30;;;;;;;1999.90;999.90;;;;;;;;;;5014595;28;20230;-68
2022/09/10 04:55:14;;;;;;;1999.90;999.90;;;;;;;;;;5030121;28;20202;-68
2022/09/10 04:57:59;;;;;;;1999.90;999.90;;;;;;;;;;5032419;28;20206;-67
2022/09/10 05:00:44;;;;;;;1999.90;999.90;;;;;;;;;;5022168;28;20736;-68
2022/09/10 05:03:29;;;;;;;1999.90;999.90;;;;;;;;;;5020079;28;20222;-68
2022/09/10 05:06:14;;;;;;;1999.90;999.90;;;;;;;;;;5032205;28;20354;-67
2022/09/10 05:09:01;;;;;;;1999.90;999.90;;;;;;;;;;5030820;28;20246;-68
2022/09/10 05:11:46;;;;;;;1999.90;999.90;;;;;;;;;;5032216;28;20226;-69
2022/09/10 05:14:32;;;;;;;1999.90;999.90;;;;;;;;;;5030219;28;20205;-67
2022/09/10 05:17:17;;;;;;;1999.90;999.90;;;;;;;;;;5016612;28;20264;-69
2022/09/10 05:20:04;;;;;;;1999.90;999.90;;;;;;;;;;5025270;28;20341;-68
2022/09/10 05:22:49;;;;;;;1999.90;999.90;;;;;;;;;;5029252;28;20237;-69
2022/09/10 05:25:35;;;;;;;1999.90;999.90;;;;;;;;;;5028407;28;20205;-68
2022/09/10 05:28:21;;;;;;;1999.90;999.90;;;;;;;;;;4994160;28;20279;-69
2022/09/10 05:31:07;;;;;;;1999.90;999.90;;;;;;;;;;5032197;28;20308;-69
2022/09/10 05:33:53;;;;;;;1999.90;999.90;;;;;;;;;;5030405;28;20205;-69
2022/09/10 05:36:40;;;;;;;1999.90;999.90;;;;;;;;;;5031855;28;20581;-69
2022/09/10 05:39:25;;;;;;;1999.90;999.90;;;;;;;;;;5030248;28;20597;-68
2022/09/10 05:42:11;;;;;;;1999.90;999.90;;;;;;;;;;5028257;28;20230;-69
2022/09/10 05:44:56;;;;;;;1999.90;999.90;;;;;;;;;;5029761;28;20233;-69
2022/09/10 05:47:42;;;;;;;1999.90;999.90;;;;;;;;;;5032122;28;20329;-69
2022/09/10 05:50:27;;;;;;;1999.90;999.90;;;;;;;;;;5009863;28;20264;-69
2022/09/10 05:53:13;;;;;;;1999.90;999.90;;;;;;;;;;5015800;28;20218;-69
2022/09/10 05:55:58;;;;;;;1999.90;999.90;;;;;;;;;;5007384;28;20215;-69
2022/09/10 05:58:44;;;;;;;1999.90;999.90;;;;;;;;;;5011499;28;20206;-68
2022/09/10 06:01:30;;;;;;;1999.90;999.90;;;;;;;;;;5012260;28;20802;-68
2022/09/10 06:04:16;;;;;;;1999.90;999.90;;;;;;;;;;5012020;28;20226;-67
2022/09/10 06:07:01;;;;;;;1999.90;999.90;;;;;;;;;;5012096;28;20210;-69
2022/09/10 06:09:46;;;;;;;1999.90;999.90;;;;;;;;;;5010436;28;20210;-67
2022/09/10 06:12:33;;;;;;;1999.90;999.90;;;;;;;;;;5025425;28;20418;-68
2022/09/10 06:15:20;;;;;;;1999.90;999.90;;;;;;;;;;5035776;28;20202;-67
2022/09/10 06:18:05;;;;;;;1999.90;999.90;;;;;;;;;;5011856;28;20210;-67
2022/09/10 06:20:50;;;;;;;1999.90;999.90;;;;;;;;;;5020866;28;20327;-69
2022/09/10 06:23:36;;;;;;;1999.90;999.90;;;;;;;;;;5011094;28;20215;-67
2022/09/10 06:26:21;;;;;;;1999.90;999.90;;;;;;;;;;5010148;28;20210;-68
2022/09/10 06:29:06;;;;;;;1999.90;999.90;;;;;;;;;;5009366;28;20666;-68
2022/09/10 06:31:52;;;;;;;1999.90;999.90;;;;;;;;;;5012048;28;20368;-68
2022/09/10 06:34:37;;;;;;;1999.90;999.90;;;;;;;;;;5013507;28;20215;-67
2022/09/10 06:37:23;;;;;;;1999.90;999.90;;;;;;;;;;5013744;28;20337;-68
2022/09/10 06:40:08;;;;;;;1999.90;999.90;;;;;;;;;;5013777;28;20210;-68
2022/09/10 06:42:54;;;;;;;1999.90;999.90;;;;;;;;;;4996935;28;20215;-68
2022/09/10 06:45:39;;;;;;;1999.90;999.90;;;;;;;;;;5009288;28;20288;-68
2022/09/10 06:48:26;;;;;;;1999.90;999.90;;;;;;;;;;5014295;28;20210;-68
2022/09/10 06:51:12;;;;;;;1999.90;999.90;;;;;;;;;;5015572;28;20226;-67
2022/09/10 06:53:57;;;;;;;1999.90;999.90;;;;;;;;;;5015476;28;20205;-68
2022/09/10 06:56:45;;;;;;;1999.90;999.90;;;;;;;;;;5014513;28;20527;-68
2022/09/10 06:59:30;;;;;;;1999.90;999.90;;;;;;;;;;5015460;28;20203;-68
2022/09/10 07:02:16;;;;;;;1999.90;999.90;;;;;;;;;;5015093;28;20249;-67
2022/09/10 07:05:02;;;;;;;1999.90;999.90;;;;;;;;;;5013387;28;20233;-68
2022/09/10 07:07:47;;;;;;;1999.90;999.90;;;;;;;;;;4995465;28;20207;-67
2022/09/10 07:10:32;;;;;;;1999.90;999.90;;;;;;;;;;4995637;28;20242;-68
2022/09/10 07:13:17;;;;;;;1999.90;999.90;;;;;;;;;;4998668;28;20770;-68
2022/09/10 07:16:03;;;;;;;1999.90;999.90;;;;;;;;;;5005408;28;20562;-68
2022/09/10 07:18:49;;;;;;;1999.90;999.90;;;;;;;;;;5008539;28;20214;-68
2022/09/10 07:21:36;;;;;;;1999.90;999.90;;;;;;;;;;5014706;28;20222;-68
2022/09/10 07:24:22;;;;;;;1999.90;999.90;;;;;;;;;;5014352;28;20825;-68
2022/09/10 07:27:06;;;;;;;1999.90;999.90;;;;;;;;;;5015002;28;20214;-66
2022/09/10 07:29:51;;;;;;;1999.90;999.90;;;;;;;;;;5014981;28;20574;-68
2022/09/10 07:32:37;;;;;;;1999.90;999.90;;;;;;;;;;5014854;28;20275;-68
2022/09/10 07:35:21;;;;;;;1999.90;999.90;;;;;;;;;;4998217;28;20207;-68
2022/09/10 07:38:14;;;;;;;1999.90;999.90;;;;;;;;;;5007584;28;20338;-68
2022/09/10 07:40:59;;;;;;;1999.90;999.90;;;;;;;;;;5014566;28;20222;-67
2022/09/10 07:43:44;;;;;;;1999.90;999.90;;;;;;;;;;5014370;28;20214;-67
2022/09/10 07:46:29;;;;;;;1999.90;999.90;;;;;;;;;;4999594;28;20627;-68
2022/09/10 07:49:14;;;;;;;1999.90;999.90;;;;;;;;;;4994332;28;20210;-67
2022/09/10 07:51:59;;;;;;;1999.90;999.90;;;;;;;;;;5008289;28;20253;-68
2022/09/10 07:54:45;;;;;;;1999.90;999.90;;;;;;;;;;5014587;28;20214;-68
2022/09/10 07:57:30;;;;;;;1999.90;999.90;;;;;;;;;;5005695;28;20214;-68
2022/09/10 08:00:15;;;;;;;1999.90;999.90;;;;;;;;;;5005048;28;20579;-67
2022/09/10 08:03:01;;;;;;;1999.90;999.90;;;;;;;;;;5007523;28;20289;-67
2022/09/10 08:05:47;;;;;;;1999.90;999.90;;;;;;;;;;4995568;28;20223;-68
2022/09/10 08:08:32;;;;;;;1999.90;999.90;;;;;;;;;;5026551;28;20210;-67
2022/09/10 08:11:20;;;;;;;1999.90;999.90;;;;;;;;;;5006107;28;20730;-67
2022/09/10 08:14:04;;;;;;;1999.90;999.90;;;;;;;;;;5019040;28;20231;-69
2022/09/10 08:16:49;;;;;;;1999.90;999.90;;;;;;;;;;5022221;28;20214;-68
2022/09/10 08:19:35;;;;;;;1999.90;999.90;;;;;;;;;;5019798;28;20805;-69
2022/09/10 08:22:20;;;;;;;1999.90;999.90;;;;;;;;;;5019461;28;20477;-68
2022/09/10 08:25:05;;;;;;;1999.90;999.90;;;;;;;;;;5025149;28;20285;-68
2022/09/10 08:27:53;;;;;;;1999.90;999.90;;;;;;;;;;5026463;28;20218;-68
2022/09/10 08:30:38;;;;;;;1999.90;999.90;;;;;;;;;;5012073;28;20494;-68
2022/09/10 08:33:23;;;;;;;1999.90;999.90;;;;;;;;;;5019528;28;20698;-67
2022/09/10 08:36:09;;;;;;;1999.90;999.90;;;;;;;;;;5029925;28;20206;-67
2022/09/10 08:38:54;;;;;;;1999.90;999.90;;;;;;;;;;5017977;28;20214;-68
2022/09/10 08:41:45;;;;;;;1999.90;999.90;;;;;;;;;;5021690;28;20226;-68
2022/09/10 08:44:34;;;;;;;1999.90;999.90;;;;;;;;;;5013764;28;20720;-67
2022/09/10 08:47:21;;;;;;;1999.90;999.90;;;;;;;;;;4998243;28;20284;-68
2022/09/10 08:50:10;;;;;;;1999.90;999.90;;;;;;;;;;5021584;28;20333;-67
2022/09/10 08:52:57;;;;;;;1999.90;999.90;;;;;;;;;;5013323;28;20214;-68
2022/09/10 08:55:43;;;;;;;1999.90;999.90;;;;;;;;;;5023416;28;20198;-68
2022/09/10 08:58:31;;;;;;;1999.90;999.90;;;;;;;;;;5019204;28;20211;-68
2022/09/10 09:01:22;;;;;;;1999.90;999.90;;;;;;;;;;5017680;28;20357;-69
2022/09/10 09:04:12;;;;;;;1999.90;999.90;;;;;;;;;;5025404;28;20206;-68
2022/09/10 09:06:58;;;;;;;1999.90;999.90;;;;;;;;;;5016286;28;20234;-67
2022/09/10 09:09:43;;;;;;;1999.90;999.90;;;;;;;;;;5017681;28;20253;-68
2022/09/10 09:12:32;;;;;;;1999.90;999.90;;;;;;;;;;5016809;28;20729;-67
2022/09/10 09:15:23;;;;;;;1999.90;999.90;;;;;;;;;;5009268;28;20206;-68
2022/09/10 09:18:17;;;;;;;1999.90;999.90;;;;;;;;;;5015402;28;20334;-67
2022/09/10 09:21:06;;;;;;;1999.90;999.90;;;;;;;;;;5012363;28;20221;-68
2022/09/10 09:23:54;;;;;;;1999.90;999.90;;;;;;;;;;5020592;28;20214;-68
2022/09/10 09:26:41;;;;;;;1999.90;999.90;;;;;;;;;;5014220;28;20414;-68
2022/09/10 09:29:28;;;;;;;1999.90;999.90;;;;;;;;;;5027475;28;20219;-68
2022/09/10 09:32:16;;;;;;;1999.90;999.90;;;;;;;;;;5016402;28;20277;-66
2022/09/10 09:35:06;;;;;;;1999.90;999.90;;;;;;;;;;5009986;28;20744;-68
2022/09/10 09:37:56;;;;;;;1999.90;999.90;;;;;;;;;;5024527;28;20224;-69
2022/09/10 09:40:44;;;;;;;1999.90;999.90;;;;;;;;;;5018185;28;20313;-68
2022/09/10 09:43:37;;;;;;;1999.90;999.90;;;;;;;;;;5015097;28;20202;-67
2022/09/10 09:46:23;;;;;;;1999.90;999.90;;;;;;;;;;5018976;28;20559;-68
2022/09/10 09:49:10;;;;;;;1999.90;999.90;;;;;;;;;;5031699;28;20210;-65
2022/09/10 09:51:57;;;;;;;1999.90;999.90;;;;;;;;;;5032128;28;20229;-67
2022/09/10 09:54:45;;;;;;;1999.90;999.90;;;;;;;;;;5031799;28;20221;-67
2022/09/10 09:57:30;;;;;;;1999.90;999.90;;;;;;;;;;5032156;28;20799;-67
2022/09/10 10:00:35;;;;;;;1999.90;999.90;;;;;;;;;;5031910;28;20225;-67
2022/09/10 10:03:22;;;;;;;1999.90;999.90;;;;;;;;;;5032008;28;20205;-67
2022/09/10 10:06:08;;;;;;;1999.90;999.90;;;;;;;;;;5031381;28;20230;-66
2022/09/10 10:08:57;;;;;;;1999.90;999.90;;;;;;;;;;5031349;28;20908;-67
2022/09/10 10:11:48;;;;;;;1999.90;999.90;;;;;;;;;;5031685;28;20357;-67
2022/09/10 10:14:38;;;;;;;1999.90;999.90;;;;;;;;;;5031660;28;20202;-67
2022/09/10 10:17:42;;;;;;;1999.90;999.90;;;;;;;;;;5032059;28;20206;-67
2022/09/10 10:20:35;;;;;;;1999.90;999.90;;;;;;;;;;5031767;28;20210;-67
2022/09/10 10:23:28;;;;;;;1999.90;999.90;;;;;;;;;;5031697;28;20206;-68
2022/09/10 10:26:22;;;;;;;1999.90;999.90;;;;;;;;;;5031284;28;20305;-66
2022/09/10 10:29:16;;;;;;;1999.90;999.90;;;;;;;;;;5031564;28;20410;-67
2022/09/10 10:32:01;;;;;;;1999.90;999.90;;;;;;;;;;5031723;28;20722;-67
2022/09/10 10:34:54;;;;;;;1999.90;999.90;;;;;;;;;;5031486;28;20209;-67
2022/09/10 10:37:45;;;;;;;1999.90;999.90;;;;;;;;;;5031616;28;20210;-68
2022/09/10 10:40:32;;;;;;;1999.90;999.90;;;;;;;;;;5031574;28;20696;-66
2022/09/10 10:43:25;;;;;;;1999.90;999.90;;;;;;;;;;5031940;28;20202;-68
2022/09/10 10:46:15;;;;;;;1999.90;999.90;;;;;;;;;;5031230;28;20222;-68
2022/09/10 10:49:04;;;;;;;1999.90;999.90;;;;;;;;;;5031564;28;20273;-67
2022/09/10 10:51:51;;;;;;;1999.90;999.90;;;;;;;;;;5031447;28;20366;-66
2022/09/10 10:54:44;;;;;;;1999.90;999.90;;;;;;;;;;5031540;28;20206;-66
2022/09/10 10:57:33;;;;;;;1999.90;999.90;;;;;;;;;;5035285;28;20195;-67
2022/09/10 11:00:20;;;;;;;1999.90;999.90;;;;;;;;;;5035256;28;20210;-68
2022/09/10 11:03:09;;;;;;;1999.90;999.90;;;;;;;;;;5035195;28;20281;-68
2022/09/10 11:05:56;;;;;;;1999.90;999.90;;;;;;;;;;5034714;28;20226;-66
2022/09/10 11:08:44;;;;;;;1999.90;999.90;;;;;;;;;;5035101;28;20277;-66
2022/09/10 11:11:32;;;;;;;1999.90;999.90;;;;;;;;;;5035170;28;20684;-67
2022/09/10 11:14:21;;;;;;;1999.90;999.90;;;;;;;;;;5033626;28;20414;-67
2022/09/10 11:17:10;;;;;;;1999.90;999.90;;;;;;;;;;5034937;28;20329;-67
2022/09/10 11:20:00;;;;;;;1999.90;999.90;;;;;;;;;;5034942;28;20322;-67
2022/09/10 11:22:48;;;;;;;1999.90;999.90;;;;;;;;;;5034690;28;20683;-67
2022/09/10 11:25:36;;;;;;;1999.90;999.90;;;;;;;;;;5034367;28;20225;-67
2022/09/10 11:28:25;;;;;;;1999.90;999.90;;;;;;;;;;5034720;28;20296;-67
2022/09/10 11:31:14;;;;;;;1999.90;999.90;;;;;;;;;;5034619;28;20266;-67
2022/09/10 11:34:03;;;;;;;1999.90;999.90;;;;;;;;;;5034165;28;20788;-68
2022/09/10 11:36:50;;;;;;;1999.90;999.90;;;;;;;;;;5034538;28;20197;-68
2022/09/10 11:39:37;;;;;;;1999.90;999.90;;;;;;;;;;5034562;28;20210;-68
2022/09/10 11:42:24;;;;;;;1999.90;999.90;;;;;;;;;;5034437;28;20226;-67
2022/09/10 11:45:17;;;;;;;1999.90;999.90;;;;;;;;;;5034070;28;22160;-68
2022/09/10 11:48:07;;;;;;;1999.90;999.90;;;;;;;;;;5034494;28;20203;-67
2022/09/10 11:50:56;;;;;;;1999.90;999.90;;;;;;;;;;5034365;28;20576;-67
2022/09/10 11:53:43;;;;;;;1999.90;999.90;;;;;;;;;;5034048;28;20203;-68
2022/09/10 11:56:45;;;;;;;1999.90;999.90;;;;;;;;;;5033716;28;20206;-67
2022/09/10 11:59:43;;;;;;;1999.90;999.90;;;;;;;;;;5034203;28;20198;-68
2022/09/10 12:02:39;;;;;;;1999.90;999.90;;;;;;;;;;5034102;28;20238;-67
2022/09/10 12:05:26;;;;;;;1999.90;999.90;;;;;;;;;;5033759;28;20214;-68
2022/09/10 12:08:19;;;;;;;1999.90;999.90;;;;;;;;;;5033044;28;20207;-68
2022/09/10 12:11:08;;;;;;;1999.90;999.90;;;;;;;;;;5034092;28;20219;-68
2022/09/10 12:13:53;;;;;;;1999.90;999.90;;;;;;;;;;5033946;28;20200;-67
2022/09/10 12:16:41;;;;;;;1999.90;999.90;;;;;;;;;;5033658;28;20199;-68
2022/09/10 12:19:29;;;;;;;1999.90;999.90;;;;;;;;;;5032728;28;20407;-68
2022/09/10 12:22:19;;;;;;;1999.90;999.90;;;;;;;;;;5033646;28;20232;-68
2022/09/10 12:25:06;;;;;;;1999.90;999.90;;;;;;;;;;5033599;28;20251;-67
2022/09/10 12:27:52;;;;;;;1999.90;999.90;;;;;;;;;;5033750;28;20212;-68
2022/09/10 12:30:59;;;;;;;1999.90;999.90;;;;;;;;;;5033472;28;20286;-67
2022/09/10 12:33:59;;;;;;;1999.90;999.90;;;;;;;;;;5033564;28;20706;-68
2022/09/10 12:37:15;;;;;;;1999.90;999.90;;;;;;;;;;5033291;28;20294;-67
2022/09/10 12:40:19;;;;;;;1999.90;999.90;;;;;;;;;;5033394;28;20204;-68
2022/09/10 12:43:19;;;;;;;1999.90;999.90;;;;;;;;;;5033522;28;20566;-66
2022/09/10 12:46:16;;;;;;;1999.90;999.90;;;;;;;;;;5032762;28;20222;-68
2022/09/10 12:49:06;;;;;;;1999.90;999.90;;;;;;;;;;5033346;28;20758;-67
2022/09/10 12:51:56;;;;;;;1999.90;999.90;;;;;;;;;;5032750;28;20221;-68
2022/09/10 12:54:47;;;;;;;1999.90;999.90;;;;;;;;;;5032798;28;20205;-68
2022/09/10 12:57:37;;;;;;;1999.90;999.90;;;;;;;;;;5033344;28;20700;-68
2022/09/10 13:00:22;;;;;;;1999.90;999.90;;;;;;;;;;5032809;28;20208;-66
2022/09/10 13:03:16;;;;;;;1999.90;999.90;;;;;;;;;;5033049;28;20329;-67
2022/09/10 13:06:04;;;;;;;1999.90;999.90;;;;;;;;;;5032498;28;20224;-68
2022/09/10 13:08:49;;;;;;;1999.90;999.90;;;;;;;;;;5032837;28;20204;-68
2022/09/10 13:11:35;;;;;;;1999.90;999.90;;;;;;;;;;5032861;28;20288;-68
2022/09/10 13:14:22;;;;;;;1999.90;999.90;;;;;;;;;;5032383;28;20204;-66
2022/09/10 13:17:28;;;;;;;1999.90;999.90;;;;;;;;;;5032938;28;20221;-67
2022/09/10 13:20:27;;;;;;;1999.90;999.90;;;;;;;;;;5032619;28;20216;-67
2022/09/10 13:23:20;;;;;;;1999.90;999.90;;;;;;;;;;5031878;28;20497;-68
2022/09/10 13:26:20;;;;;;;1999.90;999.90;;;;;;;;;;5032336;28;20239;-68
2022/09/10 13:29:10;;;;;;;1999.90;999.90;;;;;;;;;;5032479;28;20208;-68
2022/09/10 13:31:59;;;;;;;1999.90;999.90;;;;;;;;;;5032509;28;20226;-68
2022/09/10 13:34:58;;;;;;;1999.90;999.90;;;;;;;;;;5031885;28;20253;-66
2022/09/10 13:38:07;;;;;;;1999.90;999.90;;;;;;;;;;5032024;28;20202;-68
2022/09/10 13:41:02;;;;;;;1999.90;999.90;;;;;;;;;;5024897;28;20221;-66
2022/09/10 13:43:58;;;;;;;1999.90;999.90;;;;;;;;;;5031707;28;20744;-67
2022/09/10 13:46:45;;;;;;;1999.90;999.90;;;;;;;;;;5032294;28;20222;-67
2022/09/10 13:49:34;;;;;;;1999.90;999.90;;;;;;;;;;5032436;28;20291;-68
2022/09/10 13:52:22;;;;;;;1999.90;999.90;;;;;;;;;;5032080;28;20598;-68
2022/09/10 13:55:07;;;;;;;1999.90;999.90;;;;;;;;;;5031947;28;20210;-66
2022/09/10 13:57:54;;;;;;;1999.90;999.90;;;;;;;;;;5032167;28;20333;-67
2022/09/10 14:00:41;;;;;;;1999.90;999.90;;;;;;;;;;5031529;28;20991;-68
2022/09/10 14:03:29;;;;;;;1999.90;999.90;;;;;;;;;;5031986;28;20206;-68
2022/09/10 14:06:16;;;;;;;1999.90;999.90;;;;;;;;;;5031607;28;20253;-67
2022/09/10 14:09:03;;;;;;;1999.90;999.90;;;;;;;;;;5031968;28;20213;-67
2022/09/10 14:11:49;;;;;;;1999.90;999.90;;;;;;;;;;5031863;28;20884;-67
2022/09/10 14:14:38;;;;;;;1999.90;999.90;;;;;;;;;;5031649;28;20270;-66
2022/09/10 14:17:25;;;;;;;1999.90;999.90;;;;;;;;;;5031808;28;20202;-68
2022/09/10 14:20:16;;;;;;;1999.90;999.90;;;;;;;;;;5031910;28;20665;-68
2022/09/10 14:23:02;;;;;;;1999.90;999.90;;;;;;;;;;5031973;28;20679;-66
2022/09/10 14:25:47;;;;;;;1999.90;999.90;;;;;;;;;;5031715;28;20213;-67
2022/09/10 14:28:33;;;;;;;1999.90;999.90;;;;;;;;;;5031786;28;20214;-67
2022/09/10 14:31:21;;;;;;;1999.90;999.90;;;;;;;;;;5034969;28;20225;-67
2022/09/10 14:34:30;;;;;;;1999.90;999.90;;;;;;;;;;5035901;28;20198;-67
2022/09/10 14:37:26;;;;;;;1999.90;999.90;;;;;;;;;;5035471;28;20197;-67
2022/09/10 14:40:16;;;;;;;1999.90;999.90;;;;;;;;;;5035601;28;20670;-67
2022/09/10 14:43:14;;;;;;;1999.90;999.90;;;;;;;;;;5035643;28;20406;-67
2022/09/10 14:45:59;;;;;;;1999.90;999.90;;;;;;;;;;5035208;28;20227;-68
2022/09/10 14:49:00;;;;;;;1999.90;999.90;;;;;;;;;;5034396;28;20402;-66
2022/09/10 14:51:46;;;;;;;1999.90;999.90;;;;;;;;;;5035462;28;20225;-68
2022/09/10 14:54:32;;;;;;;1999.90;999.90;;;;;;;;;;5035277;28;20602;-68
2022/09/10 14:57:18;;;;;;;1999.90;999.90;;;;;;;;;;5035314;28;20288;-68
2022/09/10 15:00:03;;;;;;;1999.90;999.90;;;;;;;;;;5035421;28;20296;-68
2022/09/10 15:02:50;;;;;;;1999.90;999.90;;;;;;;;;;5035132;28;20229;-68
2022/09/10 15:05:35;;;;;;;1999.90;999.90;;;;;;;;;;5034946;28;20198;-68
2022/09/10 15:08:21;;;;;;;1999.90;999.90;;;;;;;;;;5035250;28;20206;-67
2022/09/10 15:11:06;;;;;;;1999.90;999.90;;;;;;;;;;5035103;28;20242;-68
2022/09/10 15:13:54;;;;;;;1999.90;999.90;;;;;;;;;;5035024;28;20212;-67
2022/09/10 15:16:39;;;;;;;1999.90;999.90;;;;;;;;;;5034906;28;20207;-66
2022/09/10 15:19:24;;;;;;;1999.90;999.90;;;;;;;;;;5035222;28;20211;-68
2022/09/10 15:22:16;;;;;;;1999.90;999.90;;;;;;;;;;5035093;28;20224;-65
2022/09/10 15:25:03;;;;;;;1999.90;999.90;;;;;;;;;;5034682;28;20243;-68
2022/09/10 15:27:47;;;;;;;1999.90;999.90;;;;;;;;;;5035189;28;20727;-67
2022/09/10 15:30:34;;;;;;;1999.90;999.90;;;;;;;;;;5033445;28;20464;-67
2022/09/10 15:33:19;;;;;;;1999.90;999.90;;;;;;;;;;5034416;28;20209;-68
2022/09/10 15:36:05;;;;;;;1999.90;999.90;;;;;;;;;;5034361;28;20212;-68
2022/09/10 15:38:50;;;;;;;1999.90;999.90;;;;;;;;;;5034474;28;20286;-68
2022/09/10 15:41:40;;;;;;;1999.90;999.90;;;;;;;;;;5033838;28;20242;-68
2022/09/10 15:44:25;;;;;;;1999.90;999.90;;;;;;;;;;5034305;28;20806;-67
2022/09/10 15:47:10;;;;;;;1999.90;999.90;;;;;;;;;;5034415;28;20237;-67
2022/09/10 15:49:55;;;;;;;1999.90;999.90;;;;;;;;;;5034032;28;20330;-67
2022/09/10 15:52:40;;;;;;;1999.90;999.90;;;;;;;;;;5034236;28;20756;-68
2022/09/10 15:55:26;;;;;;;1999.90;999.90;;;;;;;;;;5034100;28;20308;-68
2022/09/10 15:58:12;;;;;;;1999.90;999.90;;;;;;;;;;5034170;28;20206;-67
2022/09/10 16:01:01;;;;;;;1999.90;999.90;;;;;;;;;;5034090;28;20283;-67
2022/09/10 16:03:48;;;;;;;1999.90;999.90;;;;;;;;;;5035113;28;20230;-68
2022/09/10 16:06:34;;;;;;;1999.90;999.90;;;;;;;;;;5036439;28;20619;-68
2022/09/10 16:09:19;;;;;;;1999.90;999.90;;;;;;;;;;5034840;28;20698;-68
2022/09/10 16:12:04;;;;;;;1999.90;999.90;;;;;;;;;;5033861;28;20236;-68
2022/09/10 16:14:52;;;;;;;1999.90;999.90;;;;;;;;;;5033533;28;20214;-68
2022/09/10 16:17:37;;;;;;;1999.90;999.90;;;;;;;;;;5034008;28;20463;-67
2022/09/10 16:20:22;;;;;;;1999.90;999.90;;;;;;;;;;5033774;28;20274;-67
2022/09/10 16:23:07;;;;;;;1999.90;999.90;;;;;;;;;;5033943;28;20276;-68
2022/09/10 16:25:53;;;;;;;1999.90;999.90;;;;;;;;;;5033095;28;20212;-68
2022/09/10 16:28:38;;;;;;;1999.90;999.90;;;;;;;;;;5033353;28;21012;-68
2022/09/10 16:31:25;;;;;;;1999.90;999.90;;;;;;;;;;5033531;28;20230;-68
2022/09/10 16:34:11;;;;;;;1999.90;999.90;;;;;;;;;;5033345;28;20214;-66
2022/09/10 16:36:56;;;;;;;1999.90;999.90;;;;;;;;;;5033125;28;20292;-67
2022/09/10 16:39:41;;;;;;;1999.90;999.90;;;;;;;;;;5033411;28;20209;-65
2022/09/10 16:42:27;;;;;;;1999.90;999.90;;;;;;;;;;5033537;28;20265;-67
2022/09/10 16:45:14;;;;;;;1999.90;999.90;;;;;;;;;;5032943;28;20208;-66
2022/09/10 16:48:00;;;;;;;1999.90;999.90;;;;;;;;;;5033068;28;20225;-68
2022/09/10 16:50:45;;;;;;;1999.90;999.90;;;;;;;;;;5033215;28;20324;-68
2022/09/10 16:53:30;;;;;;;1999.90;999.90;;;;;;;;;;5031926;28;20817;-68
2022/09/10 16:56:16;;;;;;;1999.90;999.90;;;;;;;;;;5032816;28;20289;-66
2022/09/10 16:59:01;;;;;;;1999.90;999.90;;;;;;;;;;5032853;28;20218;-68
2022/09/10 17:01:47;;;;;;;1999.90;999.90;;;;;;;;;;5032838;28;20246;-68
2022/09/10 17:04:34;;;;;;;1999.90;999.90;;;;;;;;;;5032434;28;20429;-67
2022/09/10 17:07:19;;;;;;;1999.90;999.90;;;;;;;;;;5032870;28;20270;-68
2022/09/10 17:10:05;;;;;;;1999.90;999.90;;;;;;;;;;5032810;28;20206;-68
2022/09/10 17:12:50;;;;;;;1999.90;999.90;;;;;;;;;;5033088;28;20604;-68
2022/09/10 17:15:35;;;;;;;1999.90;999.90;;;;;;;;;;5032561;28;20265;-67
2022/09/10 17:18:19;;;;;;;1999.90;999.90;;;;;;;;;;5032721;28;20253;-68
2022/09/10 17:21:08;;;;;;;1999.90;999.90;;;;;;;;;;5032429;28;20732;-66
2022/09/10 17:23:53;;;;;;;1999.90;999.90;;;;;;;;;;5032629;28;20232;-68
2022/09/10 17:26:39;;;;;;;1999.90;999.90;;;;;;;;;;5032593;28;20209;-68
2022/09/10 17:29:24;;;;;;;1999.90;999.90;;;;;;;;;;5032543;28;20211;-68
2022/09/10 17:32:09;;;;;;;1999.90;999.90;;;;;;;;;;5032395;28;20266;-67
2022/09/10 17:34:54;;;;;;;1999.90;999.90;;;;;;;;;;5032371;28;20202;-67
2022/09/10 17:37:41;;;;;;;1999.90;999.90;;;;;;;;;;5032634;28;20727;-68
2022/09/10 17:40:26;;;;;;;1999.90;999.90;;;;;;;;;;5032214;28;20252;-68
2022/09/10 17:43:12;;;;;;;1999.90;999.90;;;;;;;;;;5032064;28;20221;-67
2022/09/10 17:45:58;;;;;;;1999.90;999.90;;;;;;;;;;5032456;28;20280;-68
2022/09/10 17:48:44;;;;;;;1999.90;999.90;;;;;;;;;;5032010;28;20225;-67
2022/09/10 17:51:30;;;;;;;1999.90;999.90;;;;;;;;;;5032394;28;20246;-66
2022/09/10 17:54:17;;;;;;;1999.90;999.90;;;;;;;;;;5031901;28;20206;-68
2022/09/10 17:57:01;;;;;;;1999.90;999.90;;;;;;;;;;5032033;28;20486;-68
2022/09/10 17:59:46;;;;;;;1999.90;999.90;;;;;;;;;;5032224;28;20214;-66
2022/09/10 18:02:31;;;;;;;1999.90;999.90;;;;;;;;;;5032490;28;20249;-66
2022/09/10 18:05:17;;;;;;;1999.90;999.90;;;;;;;;;;5032452;28;20598;-66
2022/09/10 18:08:02;;;;;;;1999.90;999.90;;;;;;;;;;5031784;28;20222;-68
2022/09/10 18:10:49;;;;;;;1999.90;999.90;;;;;;;;;;5032417;28;20257;-65
2022/09/10 18:13:35;;;;;;;1999.90;999.90;;;;;;;;;;5032051;28;20211;-67
2022/09/10 18:16:23;;;;;;;1999.90;999.90;;;;;;;;;;5031437;28;20249;-66
2022/09/10 18:19:09;;;;;;;1999.90;999.90;;;;;;;;;;5031875;28;20657;-67
2022/09/10 18:21:54;;;;;;;1999.90;999.90;;;;;;;;;;5031964;28;20612;-67
2022/09/10 18:24:39;;;;;;;1999.90;999.90;;;;;;;;;;5031566;28;20225;-67
2022/09/10 18:27:25;;;;;;;1999.90;999.90;;;;;;;;;;5031684;28;20230;-67
2022/09/10 18:30:10;;;;;;;1999.90;999.90;;;;;;;;;;5031928;28;20214;-67
2022/09/10 18:32:55;;;;;;;1999.90;999.90;;;;;;;;;;5031770;28;20579;-68
2022/09/10 18:35:40;;;;;;;1999.90;999.90;;;;;;;;;;5031422;28;20210;-67
2022/09/10 18:38:25;;;;;;;1999.90;999.90;;;;;;;;;;5031921;28;20268;-68
2022/09/10 18:41:18;;;;;;;1999.90;999.90;;;;;;;;;;5031696;28;20228;-68
2022/09/10 18:44:05;;;;;;;1999.90;999.90;;;;;;;;;;5031655;28;20209;-67
2022/09/10 18:46:51;;;;;;;1999.90;999.90;;;;;;;;;;5031645;28;20317;-67
2022/09/10 18:49:37;;;;;;;1999.90;999.90;;;;;;;;;;5031883;28;20676;-68
2022/09/10 18:52:22;;;;;;;1999.90;999.90;;;;;;;;;;5016729;28;20234;-68
2022/09/10 18:55:07;;;;;;;1999.90;999.90;;;;;;;;;;5020651;28;20218;-67
2022/09/10 18:57:52;;;;;;;1999.90;999.90;;;;;;;;;;5028365;28;20218;-67
2022/09/10 19:00:38;;;;;;;1999.90;999.90;;;;;;;;;;5022712;28;20443;-67
2022/09/10 19:03:23;;;;;;;1999.90;999.90;;;;;;;;;;5016806;28;20278;-68
2022/09/10 19:06:09;;;;;;;1999.90;999.90;;;;;;;;;;5017867;28;20599;-68
2022/09/10 19:08:55;;;;;;;1999.90;999.90;;;;;;;;;;5022434;28;20708;-68
2022/09/10 19:11:41;;;;;;;1999.90;999.90;;;;;;;;;;5015545;28;20491;-67
2022/09/10 19:14:28;;;;;;;1999.90;999.90;;;;;;;;;;5025919;28;20254;-67
2022/09/10 19:17:14;;;;;;;1999.90;999.90;;;;;;;;;;5033940;28;20206;-67
2022/09/10 19:19:59;;;;;;;1999.90;999.90;;;;;;;;;;5018904;28;20207;-68
2022/09/10 19:22:44;;;;;;;1999.90;999.90;;;;;;;;;;5017473;28;20345;-67
2022/09/10 19:25:29;;;;;;;1999.90;999.90;;;;;;;;;;5021948;28;20218;-67
2022/09/10 19:28:14;;;;;;;1999.90;999.90;;;;;;;;;;5020844;28;20353;-67
2022/09/10 19:31:01;;;;;;;1999.90;999.90;;;;;;;;;;5020749;28;20243;-68
2022/09/10 19:33:47;;;;;;;1999.90;999.90;;;;;;;;;;5034502;28;20695;-67
2022/09/10 19:36:34;;;;;;;1999.90;999.90;;;;;;;;;;5002345;28;20483;-67